createdAt,value
2019-04-05T00:03:04.299Z,85.52
2019-04-05T00:05:54.680Z,85.78
2019-04-05T00:08:38.139Z,85.82
2019-04-05T00:11:28.523Z,86.14
2019-04-05T00:14:11.523Z,86.22
2019-04-05T00:17:01.896Z,86.29
2019-04-05T00:19:45.436Z,86.25
2019-04-05T00:22:28.136Z,86.32
2019-04-05T00:25:18.551Z,86.45
2019-04-05T00:28:01.500Z,86.47
2019-04-05T00:30:51.918Z,85.96
2019-04-05T00:33:34.849Z,85.86
2019-04-05T00:36:26.120Z,85.82
2019-04-05T00:39:16.459Z,86.14
2019-04-05T00:42:06.826Z,86.17
2019-04-05T00:44:49.528Z,86.22
2019-04-05T00:47:39.908Z,86.35
2019-04-05T00:50:23.337Z,86.30
2019-04-05T00:53:13.733Z,85.70
2019-04-05T00:55:56.391Z,85.60
2019-04-05T00:58:46.767Z,85.91
2019-04-05T01:01:29.481Z,85.81
2019-04-05T01:04:12.345Z,86.41
2019-04-05T01:07:02.776Z,86.40
2019-04-05T01:09:46.246Z,86.42
2019-04-05T01:16:04.967Z,86.75
2019-04-05T01:18:55.371Z,87.04
2019-04-05T01:21:42.478Z,87.21
2019-04-05T01:24:32.871Z,87.17
2019-04-05T01:27:15.447Z,87.00
2019-04-05T01:33:54.043Z,87.31
2019-04-05T01:36:44.411Z,87.46
2019-04-05T01:39:34.805Z,87.71
2019-04-05T01:45:54.561Z,87.71
2019-04-05T01:48:44.884Z,88.12
2019-04-05T01:51:27.815Z,88.35
2019-04-05T01:54:18.164Z,88.21
2019-04-05T01:57:00.799Z,88.38
2019-04-05T01:59:51.158Z,88.96
2019-04-05T02:02:34.622Z,89.44
2019-04-05T02:05:25.105Z,89.67
2019-04-05T02:08:07.745Z,90.01
2019-04-05T02:14:26.225Z,90.46
2019-04-05T02:17:16.591Z,89.59
2019-04-05T02:20:27.535Z,89.63
2019-04-05T02:23:11.035Z,90.23
2019-04-05T02:26:01.411Z,90.42
2019-04-05T02:28:44.222Z,90.35
2019-04-05T02:31:34.605Z,90.72
2019-04-05T02:34:17.775Z,90.85
2019-04-05T02:37:08.147Z,90.96
2019-04-05T02:39:51.729Z,90.92
2019-04-05T02:43:02.605Z,90.64
2019-04-05T02:45:47.174Z,90.51
2019-04-05T02:48:58.120Z,90.50
2019-04-05T02:51:41.713Z,90.49
2019-04-05T02:54:25.115Z,90.73
2019-04-05T03:00:44.591Z,90.68
2019-04-05T03:03:27.638Z,90.40
2019-04-05T03:06:18.228Z,89.95
2019-04-05T03:09:01.367Z,90.09
2019-04-05T03:11:52.260Z,90.44
2019-04-05T03:14:35.465Z,90.70
2019-04-05T03:20:55.897Z,90.96
2019-04-05T03:24:06.715Z,91.02
2019-04-05T03:26:52.162Z,90.96
2019-04-05T03:30:22.233Z,90.89
2019-04-05T03:33:05.417Z,91.04
2019-04-05T03:35:55.905Z,91.01
2019-04-05T03:38:39.231Z,91.03
2019-04-05T03:41:29.786Z,91.13
2019-04-05T03:44:12.524Z,91.34
2019-04-05T03:47:03.136Z,90.82
2019-04-05T03:49:45.889Z,90.38
2019-04-05T03:52:36.313Z,89.92
2019-04-05T03:55:19.142Z,89.81
2019-04-05T04:01:38.464Z,90.17
2019-04-05T04:04:28.990Z,90.52
2019-04-05T04:07:12.253Z,90.78
2019-04-05T04:10:02.792Z,90.93
2019-04-05T04:12:45.893Z,91.01
2019-04-05T04:15:29.402Z,91.02
2019-04-05T04:18:19.774Z,91.03
2019-04-05T04:21:03.798Z,91.10
2019-04-05T04:27:22.612Z,91.25
2019-04-05T04:30:13.185Z,91.02
2019-04-05T04:32:56.362Z,91.04
2019-04-05T04:35:47.054Z,91.04
2019-04-05T04:38:30.308Z,91.03
2019-04-05T04:41:20.789Z,91.03
2019-04-05T04:44:03.961Z,91.17
2019-04-05T04:46:54.303Z,90.67
2019-04-05T04:49:37.736Z,90.56
2019-04-05T04:56:15.607Z,90.35
2019-04-05T04:59:05.972Z,90.61
2019-04-05T05:01:49.306Z,90.87
2019-04-05T05:08:08.921Z,91.42
2019-04-05T05:10:59.404Z,91.15
2019-04-05T05:13:49.743Z,91.17
2019-04-05T05:16:32.754Z,91.25
2019-04-05T05:19:23.337Z,91.03
2019-04-05T05:22:06.580Z,91.15
2019-04-05T05:28:25.519Z,90.89
2019-04-05T05:31:15.886Z,90.73
2019-04-05T05:37:35.447Z,90.66
2019-04-05T05:40:34.878Z,90.77
2019-04-05T05:43:30.442Z,90.56
2019-04-05T05:46:20.820Z,90.75
2019-04-05T05:49:03.433Z,91.10
2019-04-05T05:55:22.335Z,90.69
2019-04-05T05:58:12.727Z,90.62
2019-04-05T06:00:55.864Z,90.95
2019-04-05T06:03:46.200Z,91.38
2019-04-05T06:06:29.427Z,91.43
2019-04-05T06:09:19.762Z,91.23
2019-04-05T06:12:02.809Z,91.48
2019-04-05T06:14:53.194Z,91.42
2019-04-05T06:17:35.730Z,91.53
2019-04-05T06:20:26.052Z,91.42
2019-04-05T06:23:09.217Z,91.57
2019-04-05T06:25:59.558Z,91.68
2019-04-05T06:28:42.884Z,91.56
2019-04-05T06:31:33.347Z,91.13
2019-04-05T06:34:16.056Z,91.07
2019-04-05T06:37:06.414Z,90.86
2019-04-05T06:39:49.366Z,90.84
2019-04-05T06:42:39.742Z,90.48
2019-04-05T06:45:23.084Z,89.72
2019-04-05T06:48:19.345Z,89.23
2019-04-05T06:51:18.380Z,88.90
2019-04-05T06:54:09.148Z,88.56
2019-04-05T06:56:52.298Z,88.66
2019-04-05T06:59:42.627Z,88.73
2019-04-05T07:02:25.826Z,88.15
2019-04-05T07:05:16.201Z,87.95
2019-04-05T07:07:59.604Z,88.19
2019-04-05T07:10:49.948Z,88.62
2019-04-05T07:13:32.535Z,88.58
2019-04-05T07:16:15.204Z,88.05
2019-04-05T07:19:05.592Z,87.03
2019-04-05T07:21:48.180Z,87.40
2019-04-05T07:24:38.557Z,85.61
2019-04-05T07:27:28.892Z,85.43
2019-04-05T07:30:12.029Z,84.59
2019-04-05T07:33:02.342Z,84.09
2019-04-05T07:35:44.898Z,84.34
2019-04-05T07:38:35.190Z,82.76
2019-04-05T07:41:18.657Z,81.54
2019-04-05T07:44:09.043Z,81.59
2019-04-05T07:46:59.401Z,80.14
2019-04-05T07:49:42.624Z,78.84
2019-04-05T07:52:32.981Z,77.88
2019-04-05T07:55:16.491Z,78.94
2019-04-05T07:58:06.924Z,79.34
2019-04-05T08:00:51.055Z,78.17
2019-04-05T08:03:41.460Z,77.86
2019-04-05T08:06:24.214Z,78.28
2019-04-05T08:12:43.734Z,76.57
2019-04-05T08:15:34.088Z,76.38
2019-04-05T08:18:17.603Z,75.97
2019-04-05T08:21:08.006Z,76.00
2019-04-05T08:23:51.259Z,75.84
2019-04-05T08:26:41.624Z,74.31
2019-04-05T08:29:24.795Z,74.23
2019-04-05T08:32:14.324Z,74.23
2019-04-05T08:35:00.202Z,74.20
2019-04-05T08:37:43.522Z,74.75
2019-04-05T08:40:33.892Z,74.20
2019-04-05T08:43:24.266Z,73.41
2019-04-05T08:46:14.694Z,74.57
2019-04-05T08:49:09.722Z,73.35
2019-04-05T08:51:49.442Z,72.90
2019-04-05T08:54:36.330Z,72.23
2019-04-05T08:57:24.453Z,72.98
2019-04-05T09:00:07.463Z,72.21
2019-04-05T09:02:58.411Z,72.39
2019-04-05T09:05:41.343Z,71.61
2019-04-05T09:08:31.687Z,71.48
2019-04-05T09:11:22.056Z,71.96
2019-04-05T09:14:12.436Z,71.38
2019-04-05T09:16:55.896Z,71.18
2019-04-05T09:19:46.268Z,69.90
2019-04-05T09:22:29.241Z,69.98
2019-04-05T09:25:19.920Z,70.38
2019-04-05T09:28:24.025Z,69.40
2019-04-05T09:31:14.383Z,68.86
2019-04-05T09:33:57.125Z,68.86
2019-04-05T09:36:47.531Z,68.29
2019-04-05T09:39:30.845Z,68.23
2019-04-05T09:42:21.211Z,67.68
2019-04-05T09:45:05.040Z,68.29
2019-04-05T09:47:55.459Z,68.50
2019-04-05T09:50:38.061Z,68.74
2019-04-05T09:53:28.463Z,67.40
2019-04-05T09:56:11.960Z,67.11
2019-04-05T09:59:02.375Z,66.07
2019-04-05T10:01:45.075Z,66.41
2019-04-05T10:04:35.438Z,66.54
2019-04-05T10:07:18.712Z,66.20
2019-04-05T10:10:29.563Z,65.17
2019-04-05T10:13:12.440Z,66.80
2019-04-05T10:16:02.820Z,65.78
2019-04-05T10:18:46.184Z,65.98
2019-04-05T10:21:36.512Z,64.91
2019-04-05T10:24:26.872Z,63.83
2019-04-05T10:27:09.681Z,63.30
2019-04-05T10:30:19.057Z,62.35
2019-04-05T10:33:02.329Z,62.15
2019-04-05T10:35:52.704Z,61.90
2019-04-05T10:38:35.746Z,61.69
2019-04-05T10:41:26.133Z,62.61
2019-04-05T10:44:11.500Z,63.90
2019-04-05T10:46:54.738Z,63.19
2019-04-05T10:49:45.096Z,64.25
2019-04-05T10:52:28.103Z,65.42
2019-04-05T10:55:18.460Z,66.01
2019-04-05T10:58:01.050Z,66.35
2019-04-05T11:00:51.431Z,66.68
2019-04-05T11:03:34.062Z,66.67
2019-04-05T11:06:24.445Z,67.10
2019-04-05T11:09:07.966Z,66.76
2019-04-05T11:11:58.346Z,65.82
2019-04-05T11:14:41.065Z,65.33
2019-04-05T11:17:31.534Z,64.94
2019-04-05T11:20:21.392Z,64.62
2019-04-05T11:23:06.298Z,65.18
2019-04-05T11:25:49.469Z,65.17
2019-04-05T11:28:39.831Z,63.26
2019-04-05T11:31:23.122Z,62.47
2019-04-05T11:34:13.563Z,63.73
2019-04-05T11:37:04.050Z,63.31
2019-04-05T11:39:54.708Z,63.97
2019-04-05T11:42:38.476Z,64.85
2019-04-05T11:48:21.820Z,66.08
2019-04-05T11:51:04.779Z,65.90
2019-04-05T11:53:55.145Z,66.57
2019-04-05T11:56:38.012Z,66.92
2019-04-05T11:59:28.419Z,66.72
2019-04-05T12:02:30.024Z,66.46
2019-04-05T12:05:14.679Z,66.46
2019-04-05T12:08:05.023Z,66.55
2019-04-05T12:10:47.667Z,66.38
2019-04-05T12:13:38.029Z,67.06
2019-04-05T12:16:20.806Z,67.38
2019-04-05T12:19:11.170Z,67.10
2019-04-05T12:21:53.913Z,67.43
2019-04-05T12:24:44.294Z,67.33
2019-04-05T12:27:26.830Z,67.91
2019-04-05T12:33:28.541Z,67.68
2019-04-05T12:36:22.014Z,67.17
2019-04-05T12:39:23.603Z,66.83
2019-04-05T12:42:14.018Z,67.49
2019-04-05T12:44:57.329Z,66.95
2019-04-05T12:47:47.732Z,66.65
2019-04-05T12:51:00.621Z,66.16
2019-04-05T12:56:54.344Z,65.78
2019-04-05T12:59:58.242Z,66.15
2019-04-05T13:02:50.471Z,65.69
2019-04-05T13:05:56.819Z,66.17
2019-04-05T13:08:45.880Z,66.75
2019-04-05T13:11:28.936Z,66.59
2019-04-05T13:14:19.358Z,66.73
2019-04-05T13:17:02.843Z,67.32
2019-04-05T13:19:45.943Z,67.73
2019-04-05T13:22:36.325Z,67.87
2019-04-05T13:25:18.991Z,67.78
2019-04-05T13:28:13.456Z,68.07
2019-04-05T13:31:13.526Z,68.40
2019-04-05T13:34:05.866Z,68.72
2019-04-05T13:37:19.658Z,69.29
2019-04-05T13:40:00.612Z,69.69
2019-04-05T13:43:04.628Z,69.62
2019-04-05T13:45:55.000Z,69.71
2019-04-05T13:48:40.140Z,70.02
2019-04-05T13:51:31.907Z,70.10
2019-04-05T13:54:35.014Z,70.36
2019-04-05T13:57:18.257Z,70.68
2019-04-05T14:03:45.158Z,70.74
2019-04-05T14:06:28.239Z,71.04
2019-04-05T14:09:18.570Z,70.88
2019-04-05T14:12:01.166Z,71.33
2019-04-05T14:14:51.853Z,71.50
2019-04-05T14:17:56.364Z,71.39
2019-04-05T14:20:49.638Z,72.40
2019-04-05T14:23:53.294Z,72.62
2019-04-05T14:26:43.803Z,72.79
2019-04-05T14:29:48.509Z,73.56
2019-04-05T14:32:38.889Z,73.34
2019-04-05T14:35:24.515Z,73.66
2019-04-05T14:38:13.941Z,73.72
2019-04-05T14:40:56.562Z,73.67
2019-04-05T14:43:46.932Z,73.71
2019-04-05T14:46:29.526Z,72.91
2019-04-05T14:49:19.905Z,72.89
2019-04-05T14:52:03.339Z,73.23
2019-04-05T14:54:53.734Z,73.56
2019-04-05T14:57:36.794Z,73.27
2019-04-05T15:00:27.149Z,73.60
2019-04-05T15:03:10.226Z,73.59
2019-04-05T15:06:00.575Z,73.90
2019-04-05T15:08:43.979Z,74.26
2019-04-05T15:11:34.342Z,74.66
2019-04-05T15:14:17.633Z,74.85
2019-04-05T15:17:07.965Z,75.50
2019-04-05T15:19:51.445Z,75.95
2019-04-05T15:22:34.115Z,76.12
2019-04-05T15:25:24.427Z,76.29
2019-04-05T15:28:07.545Z,76.28
2019-04-05T15:30:57.922Z,76.54
2019-04-05T15:34:00.957Z,76.58
2019-04-05T15:36:51.340Z,76.47
2019-04-05T15:39:34.950Z,76.69
2019-04-05T15:42:25.306Z,76.79
2019-04-05T15:45:08.653Z,77.46
2019-04-05T15:47:59.020Z,76.89
2019-04-05T15:50:41.815Z,77.59
2019-04-05T15:53:32.683Z,77.64
2019-04-05T15:56:37.276Z,77.84
2019-04-05T15:59:27.655Z,77.89
2019-04-05T16:02:11.082Z,78.63
2019-04-05T16:05:01.460Z,78.44
2019-04-05T16:07:43.969Z,78.55
2019-04-05T16:10:34.348Z,77.79
2019-04-05T16:13:17.648Z,78.70
2019-04-05T16:16:07.990Z,78.78
2019-04-05T16:18:51.100Z,79.31
2019-04-05T16:21:41.526Z,79.87
2019-04-05T16:24:24.802Z,80.32
2019-04-05T16:27:15.208Z,80.48
2019-04-05T16:29:57.883Z,80.60
2019-04-05T16:32:48.258Z,80.55
2019-04-05T16:35:31.751Z,80.97
2019-04-05T16:38:22.170Z,81.02
2019-04-05T16:41:05.160Z,81.16
2019-04-05T16:43:58.070Z,81.48
2019-04-05T16:46:41.002Z,82.07
2019-04-05T16:49:31.343Z,82.03
2019-04-05T16:52:13.930Z,82.37
2019-04-05T16:58:33.074Z,82.79
2019-04-05T17:01:27.428Z,82.70
2019-04-05T17:04:35.485Z,82.60
2019-04-05T17:07:18.742Z,82.95
2019-04-05T17:10:09.179Z,82.72
2019-04-05T17:12:52.047Z,82.65
2019-04-05T17:15:34.747Z,82.83
2019-04-05T17:21:38.991Z,82.98
2019-04-05T17:24:29.365Z,83.24
2019-04-05T17:27:32.620Z,83.39
2019-04-05T17:30:23.059Z,83.44
2019-04-05T17:33:05.855Z,83.41
2019-04-05T17:35:56.268Z,83.83
2019-04-05T17:38:39.809Z,84.22
2019-04-05T17:41:49.205Z,85.24
2019-04-05T17:44:32.659Z,85.50
2019-04-05T17:47:23.198Z,86.13
2019-04-05T17:50:32.964Z,85.97
2019-04-05T17:53:16.131Z,86.44
2019-04-05T17:56:06.620Z,86.05
2019-04-05T17:58:50.051Z,86.74
2019-04-05T18:01:40.572Z,86.80
2019-04-05T18:04:31.143Z,87.47
2019-04-05T18:07:14.500Z,88.34
2019-04-05T18:10:05.466Z,87.58
2019-04-05T18:12:48.539Z,88.83
2019-04-05T18:15:46.705Z,88.95
2019-04-05T18:18:43.916Z,89.62
2019-04-05T18:21:34.442Z,89.98
2019-04-05T18:24:17.901Z,90.67
2019-04-05T18:27:08.513Z,91.11
2019-04-05T18:30:01.377Z,91.51
2019-04-05T18:32:44.404Z,91.74
2019-04-05T18:35:28.238Z,92.37
2019-04-05T18:38:18.900Z,91.70
2019-04-05T18:41:02.602Z,92.01
2019-04-05T18:43:53.287Z,91.63
2019-04-05T18:46:36.631Z,91.95
2019-04-05T18:49:27.337Z,91.71
2019-04-05T18:52:10.406Z,92.86
2019-04-05T18:55:01.061Z,93.33
2019-04-05T18:57:44.884Z,93.09
2019-04-05T19:00:35.557Z,92.91
2019-04-05T19:03:18.479Z,93.29
2019-04-05T19:06:09.286Z,92.36
2019-04-05T19:08:52.892Z,92.08
2019-04-05T19:11:43.603Z,92.65
2019-04-05T19:14:26.867Z,92.14
2019-04-05T19:17:24.161Z,93.21
2019-04-05T19:20:22.712Z,92.50
2019-04-05T19:23:13.431Z,92.42
2019-04-05T19:25:56.839Z,91.90
2019-04-05T19:28:47.597Z,91.77
2019-04-05T19:49:22.699Z,92.92
2019-04-05T19:52:13.432Z,93.51
2019-04-05T19:54:57.081Z,92.12
2019-04-05T19:57:47.821Z,92.48
2019-04-05T20:00:30.782Z,92.90
2019-04-05T20:03:21.446Z,91.83
2019-04-05T20:06:04.879Z,92.14
2019-04-05T20:08:55.587Z,92.18
2019-04-05T20:15:21.087Z,91.84
2019-04-05T20:18:06.711Z,92.29
2019-04-05T20:24:14.004Z,90.87
2019-04-05T20:27:00.013Z,91.66
2019-04-05T20:29:53.169Z,92.04
2019-04-05T20:36:09.238Z,90.61
2019-04-05T20:38:54.323Z,90.33
2019-04-05T20:41:45.127Z,89.89
2019-04-05T20:44:28.903Z,90.51
2019-04-05T20:47:19.616Z,90.99
2019-04-05T20:50:02.845Z,89.74
2019-04-05T20:52:53.500Z,90.07
2019-04-05T20:55:37.443Z,89.62
2019-04-05T20:58:28.011Z,90.29
2019-04-05T21:01:10.975Z,90.14
2019-04-05T21:04:01.566Z,89.98
2019-04-05T21:07:04.941Z,89.75
2019-04-05T21:09:55.407Z,90.60
2019-04-05T21:12:38.497Z,91.61
2019-04-05T21:15:28.895Z,92.09
2019-04-05T21:18:11.402Z,92.30
2019-04-05T21:21:05.083Z,92.14
2019-04-05T21:23:47.814Z,91.82
2019-04-05T21:26:30.526Z,91.06
2019-04-05T21:29:20.849Z,90.58
2019-04-05T21:32:03.448Z,91.12
2019-04-05T21:35:12.890Z,90.98
2019-04-05T21:37:56.098Z,90.67
2019-04-05T21:40:47.390Z,90.27
2019-04-05T21:43:37.776Z,90.40
2019-04-05T21:46:21.032Z,91.20
2019-04-05T21:49:11.435Z,92.28
2019-04-05T21:51:54.967Z,91.87
2019-04-05T21:54:47.828Z,92.14
2019-04-05T21:57:50.251Z,91.29
2019-04-05T22:00:44.200Z,91.42
2019-04-05T22:03:27.277Z,90.98
2019-04-05T22:06:09.953Z,90.94
2019-04-05T22:09:00.370Z,91.04
2019-04-05T22:11:43.341Z,91.12
2019-04-05T22:14:33.741Z,91.82
2019-04-05T22:17:16.867Z,92.37
2019-04-05T22:20:07.776Z,92.64
2019-04-05T22:22:51.290Z,92.34
2019-04-05T22:25:41.812Z,92.37
2019-04-05T22:28:25.207Z,92.10
2019-04-05T22:31:15.644Z,92.18
2019-04-05T22:33:58.713Z,92.60
2019-04-05T22:36:49.107Z,92.89
2019-04-05T22:39:32.137Z,92.81
2019-04-05T22:42:22.503Z,93.26
2019-04-05T22:45:05.246Z,92.87
2019-04-05T22:47:55.592Z,92.69
2019-04-05T22:50:38.931Z,92.32
2019-04-05T22:53:29.310Z,92.57
2019-04-05T22:56:12.637Z,92.90
2019-04-05T22:58:55.294Z,92.52
2019-04-05T23:01:45.695Z,92.53
2019-04-05T23:04:36.036Z,93.03
2019-04-05T23:07:19.255Z,93.33
2019-04-05T23:10:09.697Z,93.79
2019-04-05T23:12:52.940Z,94.18
2019-04-05T23:15:43.303Z,94.29
2019-04-05T23:18:26.577Z,93.67
2019-04-05T23:21:16.971Z,93.55
2019-04-05T23:23:59.779Z,93.72
2019-04-05T23:26:50.206Z,93.84
2019-04-05T23:29:33.081Z,93.76
2019-04-05T23:32:23.450Z,93.38
2019-04-05T23:35:07.101Z,93.69
2019-04-05T23:37:57.448Z,93.76
2019-04-05T23:40:40.360Z,93.66
2019-04-05T23:43:30.735Z,93.89
2019-04-05T23:46:13.439Z,94.16
2019-04-05T23:49:03.812Z,94.42
2019-04-05T23:51:47.171Z,94.18
2019-04-05T23:54:37.529Z,94.27
2019-04-05T23:57:20.314Z,94.23
